Aviation Digital Data Service (ADDS)

Output produced by METARs form (1528 UTC 27 September 2016)
found at http://www.aviationweather.gov/adds/metars/
 
METAR text: EPPO 271500Z VRB02KT CAVOK 19/06 Q1026
Conditions at: EPPO (POZNAN/LAWICA , PL) observed 1500 UTC 27 September 2016
Temperature: 19.0°C (66°F)
Dewpoint: 6.0°C (43°F) [RH = 43%]
Pressure (altimeter): 30.30 inches Hg (1026.0 mb)
Winds: variable direction winds at 2 MPH (2 knots; 1.0 m/s)
Visibility: 6 or more miles (10+ km)
Ceiling: ceiling and visibility are OK
Clouds: unknown
Weather: no significant weather observed at this time

Forecast for: EPPO (POZNAN/LAWICA , PL)
Text: TAF EPPO 271130Z 2712/2812 13005KT CAVOK
Forecast period: 1200 UTC 27 September 2016 to 1200 UTC 28 September 2016
Forecast type: FROM: standard forecast or significant change
Winds: from the SE (130 degrees) at 6 MPH (5 knots; 2.6 m/s)
Visibility: 6 or more miles (10+ km)
Clouds: not forecast
Weather: NSW  (no significant weather)